• Join FlightAware (Why Join?)
  • Login
  • US Flag 
12:29AM EDT


 

Airport Tracker/Info


-or-


 

Live Flight TrackerFlight Track Log ✈ UCA3596 ✈ 05-Oct-2013 ✈ KBGM - KIAD

Flight Track Log - Related Links

Times and Time Zones

All times are in EDT time to prevent confusion due to time zone crossing. See the UCA3596 flight status page for this flight to view local times or setup timezone preferences in your user account.

Time Position Orientation Groundspeed Altitude Reporting Facility
EDT Latitude Longitude Course Direction KTS MPH feet Rate Location/Type
02:49PM 42.2361 -76.0250 211° Southwest 254 292 2,800  Level New York Center
02:50PM 42.2050 -76.0675 225° Southwest 169 194 3,900 1,380 Climbing New York Center
02:51PM 42.1661 -76.1006 212° Southwest 164 189 5,600 1,500 Climbing New York Center
02:52PM 42.1228 -76.1392 213° Southwest 176 203 6,900 1,200 Climbing New York Center
02:53PM 42.0772 -76.1744 210° Southwest 182 209 8,100 1,200 Climbing New York Center
02:54PM 41.8565 -76.1470 211° Southwest  Level Estimated
02:54PM 42.0297 -76.2153 213° Southwest 202 232 9,300  Level New York Center
02:55PM 41.9800 -76.2531 209° Southwest 207 238 10,500 1,140 Climbing New York Center
02:56PM 41.9389 -76.2886 213° Southwest 207 238 11,600 960 Climbing New York Center
02:57PM 41.8914 -76.3264 211° Southwest 207 238 12,500 900 Climbing New York Center
02:58PM 41.8436 -76.3672 212° Southwest 207 238 13,400 1,020 Climbing New York Center
02:59PM 41.7936 -76.4103 213° Southwest 207 238 14,600 1,020 Climbing New York Center
03:00PM 41.7439 -76.4506 211° Southwest 207 238 15,500 660 Climbing New York Center
03:01PM 41.6964 -76.4853 209° Southwest 207 238 16,000 240 Climbing New York Center
03:02PM 41.6419 -76.5306 212° Southwest 224 258 16,000  Level New York Center
03:03PM 41.5747 -76.5858 212° Southwest 253 291 16,000  Level New York Center
03:04PM 41.5142 -76.6333 210° Southwest 258 297 16,000  Level New York Center
03:05PM 41.4578 -76.6781 211° Southwest 263 303 16,000  Level New York Center
03:06PM 41.3925 -76.7361 214° Southwest 263 303 16,000  Level New York Center
03:07PM 41.3275 -76.7828 208° Southwest 268 308 16,000  Level New York Center
03:08PM 41.2561 -76.7958 188° South 263 303 16,000  Level New York Center
03:09PM 41.1822 -76.8114 189° South 263 303 16,000  Level New York Center
03:10PM 41.1172 -76.8219 187° South 269 310 16,000  Level New York Center
03:11PM 41.0436 -76.8347 187° South 269 310 16,000  Level New York Center
03:12PM 40.9719 -76.8531 191° South 274 315 16,000  Level New York Center
03:13PM 40.8939 -76.8681 188° South 269 310 16,000  Level New York Center
03:14PM 40.8267 -76.8786 187° South 269 310 16,000  Level New York Center
03:15PM 40.7506 -76.8992 192° South 264 304 16,000  Level New York Center
03:16PM 40.6872 -76.9181 193° South 259 298 16,000  Level New York Center
03:17PM 40.6086 -76.9439 194° South 264 304 16,000  Level New York Center
03:18PM 40.5450 -76.9628 193° South 264 304 16,000  Level New York Center
03:19PM 40.4644 -76.9883 194° South 264 304 16,000 -60 Level New York Center
03:20PM 40.4028 -77.0128 197° South 269 310 15,900 -360 Descending New York Center
03:22PM 40.2667 -77.0667 197° South 287 330 15,100 -540 Descending Potomac TRACON
03:23PM 40.1833 -77.1000 197° South 291 335 14,500 -840 Descending Potomac TRACON
03:24PM 40.1167 -77.1000 180° South 303 349 13,500 -1,020 Descending Potomac TRACON
03:25PM 40.0333 -77.1167 189° South 295 339 12,500 -1,020 Descending Potomac TRACON
03:26PM 39.9500 -77.1000 171° South 303 349 11,500 -900 Descending Potomac TRACON
03:27PM 39.8667 -77.0833 171° South 297 342 10,700 -840 Descending Potomac TRACON
03:28PM 39.7833 -77.0500 163° South 290 334 9,900 -900 Descending Potomac TRACON
03:29PM 39.7167 -77.0667 191° South 279 321 9,000 -960 Descending Potomac TRACON
03:30PM 39.6833 -77.1500 243° Southwest 267 307 8,000 -900 Descending Potomac TRACON
03:31PM 39.6667 -77.2333 255° West 260 299 7,300 -540 Descending Potomac TRACON
03:32PM 39.6333 -77.3333 247° West 262 302 7,000 -180 Descending Potomac TRACON
03:33PM 39.5833 -77.3833 218° Southwest 250 288 7,000  Level Potomac TRACON
03:34PM 39.5333 -77.4333 218° Southwest 255 293 7,000  Level Potomac TRACON
03:35PM 39.4667 -77.4500 191° South 262 302 7,000 -360 Level Potomac TRACON
03:36PM 39.3833 -77.4500 180° South 267 307 6,400 -540 Descending Potomac TRACON
03:37PM 39.3167 -77.4500 180° South 262 302 6,000 -360 Descending Potomac TRACON
03:38PM 39.2500 -77.4500 180° South 261 300 5,700 -660 Descending Potomac TRACON
03:39PM 39.1833 -77.4500 180° South 238 274 4,700 -1,200 Descending Potomac TRACON
03:40PM 39.1167 -77.4500 180° South 196 226 3,300 -1,380 Descending Potomac TRACON
03:41PM 39.0667 -77.4500 180° South 208 239 2,000 -1,140 Descending Potomac TRACON
03:42PM 39.0000 -77.4667 191° South 166 191 1,100 -900 Descending Potomac TRACON